sensor_id;sensor_type;location;lat;lon;timestamp;pressure;altitude;pressure_sealevel;temperature;humidity
64544;BME280;50936;51.660;5.616;2023-01-27T00:01:03;102093.84;;;4.43;100.00
64544;BME280;50936;51.660;5.616;2023-01-27T00:03:30;102099.13;;;4.46;100.00
64544;BME280;50936;51.660;5.616;2023-01-27T00:05:57;102096.47;;;4.46;100.00
64544;BME280;50936;51.660;5.616;2023-01-27T00:08:27;102089.34;;;4.45;100.00
64544;BME280;50936;51.660;5.616;2023-01-27T00:10:58;102087.53;;;4.47;100.00
64544;BME280;50936;51.660;5.616;2023-01-27T00:13:44;102088.34;;;4.51;100.00
64544;BME280;50936;51.660;5.616;2023-01-27T00:16:11;102094.63;;;4.48;100.00
64544;BME280;50936;51.660;5.616;2023-01-27T00:18:38;102089.34;;;4.45;100.00
64544;BME280;50936;51.660;5.616;2023-01-27T00:21:05;102100.97;;;4.44;100.00
64544;BME280;50936;51.660;5.616;2023-01-27T00:23:50;102103.63;;;4.46;100.00
64544;BME280;50936;51.660;5.616;2023-01-27T00:26:36;102098.28;;;4.44;100.00
64544;BME280;50936;51.660;5.616;2023-01-27T00:29:03;102096.53;;;4.43;100.00
64544;BME280;50936;51.660;5.616;2023-01-27T00:31:30;102089.66;;;4.33;100.00
64544;BME280;50936;51.660;5.616;2023-01-27T00:34:15;102098.72;;;4.26;100.00
64544;BME280;50936;51.660;5.616;2023-01-27T00:36:42;102112.09;;;4.26;100.00
64544;BME280;50936;51.660;5.616;2023-01-27T00:39:10;102097.88;;;4.23;100.00
64544;BME280;50936;51.660;5.616;2023-01-27T00:41:39;102099.63;;;4.24;100.00
64544;BME280;50936;51.660;5.616;2023-01-27T00:44:06;102091.59;;;4.24;100.00
64544;BME280;50936;51.660;5.616;2023-01-27T00:46:39;102092.53;;;4.23;100.00
64544;BME280;50936;51.660;5.616;2023-01-27T00:49:08;102094.38;;;4.21;100.00
64544;BME280;50936;51.660;5.616;2023-01-27T00:51:36;102104.31;;;4.15;100.00
64544;BME280;50936;51.660;5.616;2023-01-27T00:54:03;102106.19;;;4.11;100.00
64544;BME280;50936;51.660;5.616;2023-01-27T00:56:30;102107.16;;;4.07;100.00
64544;BME280;50936;51.660;5.616;2023-01-27T00:58:58;102104.56;;;4.04;100.00
64544;BME280;50936;51.660;5.616;2023-01-27T01:01:26;102104.56;;;4.02;100.00
64544;BME280;50936;51.660;5.616;2023-01-27T01:03:53;102103.84;;;3.96;100.00
64544;BME280;50936;51.660;5.616;2023-01-27T01:06:21;102104.75;;;3.95;100.00
64544;BME280;50936;51.660;5.616;2023-01-27T01:08:47;102108.28;;;3.97;100.00
64544;BME280;50936;51.660;5.616;2023-01-27T01:11:16;102106.59;;;3.93;100.00
64544;BME280;50936;51.660;5.616;2023-01-27T01:13:45;102104.72;;;3.96;100.00
64544;BME280;50936;51.660;5.616;2023-01-27T01:16:16;102107.41;;;3.96;100.00
64544;BME280;50936;51.660;5.616;2023-01-27T01:18:46;102112.75;;;3.96;100.00
64544;BME280;50936;51.660;5.616;2023-01-27T01:21:14;102113.75;;;3.91;100.00
64544;BME280;50936;51.660;5.616;2023-01-27T01:23:43;102109.31;;;3.90;100.00
64544;BME280;50936;51.660;5.616;2023-01-27T01:26:13;102119.16;;;3.88;100.00
64544;BME280;50936;51.660;5.616;2023-01-27T01:28:43;102118.22;;;3.90;100.00
64544;BME280;50936;51.660;5.616;2023-01-27T01:31:16;102127.09;;;3.92;100.00
64544;BME280;50936;51.660;5.616;2023-01-27T01:33:45;102123.59;;;3.89;100.00
64544;BME280;50936;51.660;5.616;2023-01-27T01:36:16;102122.69;;;3.90;100.00
64544;BME280;50936;51.660;5.616;2023-01-27T01:38:44;102135.25;;;3.84;100.00
64544;BME280;50936;51.660;5.616;2023-01-27T01:41:16;102122.88;;;3.80;100.00
64544;BME280;50936;51.660;5.616;2023-01-27T01:43:45;102130.88;;;3.82;100.00
64544;BME280;50936;51.660;5.616;2023-01-27T01:46:12;102125.53;;;3.80;100.00
64544;BME280;50936;51.660;5.616;2023-01-27T01:51:36;102128.31;;;3.77;100.00
64544;BME280;50936;51.660;5.616;2023-01-27T01:54:27;102130.03;;;3.78;100.00
64544;BME280;50936;51.660;5.616;2023-01-27T01:57:02;102136.31;;;3.77;100.00
64544;BME280;50936;51.660;5.616;2023-01-27T01:59:41;102122.06;;;3.75;100.00
64544;BME280;50936;51.660;5.616;2023-01-27T02:02:14;102124.75;;;3.75;100.00
64544;BME280;50936;51.660;5.616;2023-01-27T02:04:52;102122.13;;;3.74;100.00
64544;BME280;50936;51.660;5.616;2023-01-27T02:07:32;102120.38;;;3.71;100.00
64544;BME280;50936;51.660;5.616;2023-01-27T02:10:05;102131.03;;;3.74;100.00
64544;BME280;50936;51.660;5.616;2023-01-27T02:12:34;102131.06;;;3.73;100.00
64544;BME280;50936;51.660;5.616;2023-01-27T02:15:03;102125.72;;;3.73;100.00
64544;BME280;50936;51.660;5.616;2023-01-27T02:17:31;102132.84;;;3.72;100.00
64544;BME280;50936;51.660;5.616;2023-01-27T02:23:10;102130.28;;;3.66;100.00
64544;BME280;50936;51.660;5.616;2023-01-27T02:28:27;102133.88;;;3.65;100.00
64544;BME280;50936;51.660;5.616;2023-01-27T02:30:55;102141.91;;;3.65;100.00
64544;BME280;50936;51.660;5.616;2023-01-27T02:33:22;102138.38;;;3.63;100.00
64544;BME280;50936;51.660;5.616;2023-01-27T02:36:06;102142.78;;;3.64;100.00
64544;BME280;50936;51.660;5.616;2023-01-27T02:38:44;102150.75;;;3.67;100.00
64544;BME280;50936;51.660;5.616;2023-01-27T02:44:26;102149.16;;;3.58;100.00
64544;BME280;50936;51.660;5.616;2023-01-27T02:46:53;102151.78;;;3.60;100.00
64544;BME280;50936;51.660;5.616;2023-01-27T02:49:20;102148.22;;;3.61;100.00
64544;BME280;50936;51.660;5.616;2023-01-27T02:51:48;102150.00;;;3.59;100.00
64544;BME280;50936;51.660;5.616;2023-01-27T02:54:15;102146.50;;;3.57;100.00
64544;BME280;50936;51.660;5.616;2023-01-27T02:56:42;102141.25;;;3.52;100.00
64544;BME280;50936;51.660;5.616;2023-01-27T02:59:12;102143.94;;;3.52;100.00
64544;BME280;50936;51.660;5.616;2023-01-27T03:01:40;102143.09;;;3.49;100.00
64544;BME280;50936;51.660;5.616;2023-01-27T03:04:07;102151.09;;;3.50;100.00
64544;BME280;50936;51.660;5.616;2023-01-27T03:06:37;102146.56;;;3.54;100.00
64544;BME280;50936;51.660;5.616;2023-01-27T03:09:04;102144.66;;;3.59;100.00
64544;BME280;50936;51.660;5.616;2023-01-27T03:11:31;102155.31;;;3.62;100.00
64544;BME280;50936;51.660;5.616;2023-01-27T03:14:17;102154.50;;;3.57;100.00
64544;BME280;50936;51.660;5.616;2023-01-27T03:16:46;102157.19;;;3.57;100.00
64544;BME280;50936;51.660;5.616;2023-01-27T03:19:31;102151.91;;;3.54;100.00
64544;BME280;50936;51.660;5.616;2023-01-27T03:21:59;102163.50;;;3.53;100.00
64544;BME280;50936;51.660;5.616;2023-01-27T03:24:32;102155.50;;;3.53;100.00
64544;BME280;50936;51.660;5.616;2023-01-27T03:27:03;102153.72;;;3.52;100.00
64544;BME280;50936;51.660;5.616;2023-01-27T03:29:50;102161.78;;;3.50;100.00
64544;BME280;50936;51.660;5.616;2023-01-27T03:32:27;102157.25;;;3.54;100.00
64544;BME280;50936;51.660;5.616;2023-01-27T03:35:15;102167.13;;;3.50;100.00
64544;BME280;50936;51.660;5.616;2023-01-27T03:37:45;102171.56;;;3.50;100.00
64544;BME280;50936;51.660;5.616;2023-01-27T03:40:31;102178.69;;;3.51;100.00
64544;BME280;50936;51.660;5.616;2023-01-27T03:43:17;102175.09;;;3.52;100.00
64544;BME280;50936;51.660;5.616;2023-01-27T03:46:04;102175.16;;;3.49;100.00
64544;BME280;50936;51.660;5.616;2023-01-27T03:48:54;102178.69;;;3.51;100.00
64544;BME280;50936;51.660;5.616;2023-01-27T03:51:23;102185.91;;;3.45;100.00
64544;BME280;50936;51.660;5.616;2023-01-27T03:54:11;102185.91;;;3.45;100.00
64544;BME280;50936;51.660;5.616;2023-01-27T03:56:38;102193.00;;;3.46;100.00
64544;BME280;50936;51.660;5.616;2023-01-27T03:59:05;102180.59;;;3.42;100.00
64544;BME280;50936;51.660;5.616;2023-01-27T04:01:32;102193.06;;;3.43;100.00
64544;BME280;50936;51.660;5.616;2023-01-27T04:03:58;102185.94;;;3.42;100.00
64544;BME280;50936;51.660;5.616;2023-01-27T04:06:44;102200.25;;;3.38;100.00
64544;BME280;50936;51.660;5.616;2023-01-27T04:09:31;102181.59;;;3.37;100.00
64544;BME280;50936;51.660;5.616;2023-01-27T04:12:02;102193.22;;;3.34;100.00
64544;BME280;50936;51.660;5.616;2023-01-27T04:14:32;102196.78;;;3.33;100.00
64544;BME280;50936;51.660;5.616;2023-01-27T04:17:04;102187.03;;;3.32;100.00
64544;BME280;50936;51.660;5.616;2023-01-27T04:19:43;102184.41;;;3.29;100.00
64544;BME280;50936;51.660;5.616;2023-01-27T04:22:11;102180.88;;;3.27;100.00
64544;BME280;50936;51.660;5.616;2023-01-27T04:24:41;102179.09;;;3.26;100.00
64544;BME280;50936;51.660;5.616;2023-01-27T04:27:11;102183.56;;;3.25;100.00
64544;BME280;50936;51.660;5.616;2023-01-27T04:29:40;102180.00;;;3.26;100.00
64544;BME280;50936;51.660;5.616;2023-01-27T04:32:10;102194.28;;;3.24;100.00
64544;BME280;50936;51.660;5.616;2023-01-27T04:34:39;102191.59;;;3.24;100.00
64544;BME280;50936;51.660;5.616;2023-01-27T04:37:07;102194.34;;;3.22;100.00
64544;BME280;50936;51.660;5.616;2023-01-27T04:39:35;102199.63;;;3.24;100.00
64544;BME280;50936;51.660;5.616;2023-01-27T04:42:02;102204.06;;;3.25;100.00
64544;BME280;50936;51.660;5.616;2023-01-27T04:44:29;102191.56;;;3.27;100.00
64544;BME280;50936;51.660;5.616;2023-01-27T04:46:56;102195.09;;;3.29;100.00
64544;BME280;50936;51.660;5.616;2023-01-27T04:49:23;102207.59;;;3.27;100.00
64544;BME280;50936;51.660;5.616;2023-01-27T04:51:52;102202.25;;;3.27;100.00
64544;BME280;50936;51.660;5.616;2023-01-27T04:54:19;102214.72;;;3.28;100.00
64544;BME280;50936;51.660;5.616;2023-01-27T04:56:55;102216.44;;;3.29;100.00
64544;BME280;50936;51.660;5.616;2023-01-27T04:59:23;102211.09;;;3.29;100.00
64544;BME280;50936;51.660;5.616;2023-01-27T05:01:51;102209.28;;;3.31;100.00
64544;BME280;50936;51.660;5.616;2023-01-27T05:04:18;102219.06;;;3.34;100.00
64544;BME280;50936;51.660;5.616;2023-01-27T05:06:45;102214.59;;;3.34;100.00
64544;BME280;50936;51.660;5.616;2023-01-27T05:09:11;102211.91;;;3.34;100.00
64544;BME280;50936;51.660;5.616;2023-01-27T05:11:38;102216.38;;;3.35;100.00
64544;BME280;50936;51.660;5.616;2023-01-27T05:14:05;102225.28;;;3.34;100.00
64544;BME280;50936;51.660;5.616;2023-01-27T05:16:32;102211.91;;;3.36;100.00
64544;BME280;50936;51.660;5.616;2023-01-27T05:18:59;102207.44;;;3.36;100.00
64544;BME280;50936;51.660;5.616;2023-01-27T05:21:27;102211.03;;;3.35;100.00
64544;BME280;50936;51.660;5.616;2023-01-27T05:23:56;102208.34;;;3.35;100.00
64544;BME280;50936;51.660;5.616;2023-01-27T05:26:26;102222.63;;;3.33;100.00
64544;BME280;50936;51.660;5.616;2023-01-27T05:28:56;102218.16;;;3.33;100.00
64544;BME280;50936;51.660;5.616;2023-01-27T05:31:26;102234.13;;;3.36;100.00
64544;BME280;50936;51.660;5.616;2023-01-27T05:33:55;102231.44;;;3.38;100.00
64544;BME280;50936;51.660;5.616;2023-01-27T05:36:24;102239.47;;;3.36;100.00
64544;BME280;50936;51.660;5.616;2023-01-27T05:38:53;102220.75;;;3.38;100.00
64544;BME280;50936;51.660;5.616;2023-01-27T05:41:21;102237.66;;;3.38;100.00
64544;BME280;50936;51.660;5.616;2023-01-27T05:43:53;102226.97;;;3.38;100.00
64544;BME280;50936;51.660;5.616;2023-01-27T05:46:22;102244.78;;;3.38;100.00
64544;BME280;50936;51.660;5.616;2023-01-27T05:48:54;102242.13;;;3.38;100.00
64544;BME280;50936;51.660;5.616;2023-01-27T05:51:24;102241.25;;;3.37;100.00
64544;BME280;50936;51.660;5.616;2023-01-27T05:53:54;102248.31;;;3.40;100.00
64544;BME280;50936;51.660;5.616;2023-01-27T05:56:24;102249.19;;;3.40;100.00
64544;BME280;50936;51.660;5.616;2023-01-27T05:58:56;102248.28;;;3.41;100.00
64544;BME280;50936;51.660;5.616;2023-01-27T06:01:29;102254.53;;;3.40;100.00
64544;BME280;50936;51.660;5.616;2023-01-27T06:03:57;102255.38;;;3.42;100.00
64544;BME280;50936;51.660;5.616;2023-01-27T06:06:26;102251.81;;;3.43;100.00
64544;BME280;50936;51.660;5.616;2023-01-27T06:08:55;102258.88;;;3.47;100.00
64544;BME280;50936;51.660;5.616;2023-01-27T06:11:22;102246.34;;;3.50;100.00
64544;BME280;50936;51.660;5.616;2023-01-27T06:13:52;102255.28;;;3.49;100.00
64544;BME280;50936;51.660;5.616;2023-01-27T06:16:21;102257.91;;;3.52;100.00
64544;BME280;50936;51.660;5.616;2023-01-27T06:18:51;102256.97;;;3.56;100.00
64544;BME280;50936;51.660;5.616;2023-01-27T06:21:20;102257.78;;;3.59;100.00
64544;BME280;50936;51.660;5.616;2023-01-27T06:23:48;102255.13;;;3.58;100.00
64544;BME280;50936;51.660;5.616;2023-01-27T06:26:17;102267.66;;;3.56;100.00
64544;BME280;50936;51.660;5.616;2023-01-27T06:28:45;102267.66;;;3.56;100.00
64544;BME280;50936;51.660;5.616;2023-01-27T06:31:18;102260.47;;;3.58;100.00
64544;BME280;50936;51.660;5.616;2023-01-27T06:33:48;102256.88;;;3.59;100.00
64544;BME280;50936;51.660;5.616;2023-01-27T06:36:19;102263.06;;;3.62;100.00
64544;BME280;50936;51.660;5.616;2023-01-27T06:38:48;102255.88;;;3.64;100.00
64544;BME280;50936;51.660;5.616;2023-01-27T06:41:16;102264.72;;;3.68;100.00
64544;BME280;50936;51.660;5.616;2023-01-27T06:43:50;102261.16;;;3.69;100.00
64544;BME280;50936;51.660;5.616;2023-01-27T06:46:17;102251.38;;;3.68;100.00
64544;BME280;50936;51.660;5.616;2023-01-27T06:48:44;102258.50;;;3.69;100.00
64544;BME280;50936;51.660;5.616;2023-01-27T06:51:11;102263.84;;;3.69;100.00
64544;BME280;50936;51.660;5.616;2023-01-27T06:53:38;102256.66;;;3.71;100.00
64544;BME280;50936;51.660;5.616;2023-01-27T06:56:05;102260.19;;;3.73;100.00
64544;BME280;50936;51.660;5.616;2023-01-27T06:58:32;102269.13;;;3.72;100.00
64544;BME280;50936;51.660;5.616;2023-01-27T07:00:59;102273.53;;;3.75;100.00
64544;BME280;50936;51.660;5.616;2023-01-27T07:03:26;102276.19;;;3.76;100.00
64544;BME280;50936;51.660;5.616;2023-01-27T07:05:53;102277.00;;;3.80;100.00
64544;BME280;50936;51.660;5.616;2023-01-27T07:08:20;102281.53;;;3.76;100.00
64544;BME280;50936;51.660;5.616;2023-01-27T07:10:47;102282.41;;;3.77;100.00
64544;BME280;50936;51.660;5.616;2023-01-27T07:13:14;102276.19;;;3.76;100.00
64544;BME280;50936;51.660;5.616;2023-01-27T07:15:41;102282.41;;;3.77;100.00
64544;BME280;50936;51.660;5.616;2023-01-27T07:18:09;102278.00;;;3.74;100.00
64544;BME280;50936;51.660;5.616;2023-01-27T07:20:40;102269.97;;;3.74;100.00
64544;BME280;50936;51.660;5.616;2023-01-27T07:23:08;102273.50;;;3.76;100.00
64544;BME280;50936;51.660;5.616;2023-01-27T07:25:35;102286.88;;;3.76;100.00
64544;BME280;50936;51.660;5.616;2023-01-27T07:28:03;102277.97;;;3.77;100.00
64544;BME280;50936;51.660;5.616;2023-01-27T07:30:31;102285.03;;;3.78;100.00
64544;BME280;50936;51.660;5.616;2023-01-27T07:33:07;102286.81;;;3.79;100.00
64544;BME280;50936;51.660;5.616;2023-01-27T07:35:38;102298.38;;;3.80;100.00
64544;BME280;50936;51.660;5.616;2023-01-27T07:38:07;102296.59;;;3.79;100.00
64544;BME280;50936;51.660;5.616;2023-01-27T07:40:34;102302.88;;;3.79;100.00
64544;BME280;50936;51.660;5.616;2023-01-27T07:43:02;102299.25;;;3.80;100.00
64544;BME280;50936;51.660;5.616;2023-01-27T07:45:32;102302.75;;;3.85;100.00
64544;BME280;50936;51.660;5.616;2023-01-27T07:48:04;102308.09;;;3.85;100.00
64544;BME280;50936;51.660;5.616;2023-01-27T07:50:37;102308.09;;;3.85;100.00
64544;BME280;50936;51.660;5.616;2023-01-27T07:53:06;102310.81;;;3.81;100.00
64544;BME280;50936;51.660;5.616;2023-01-27T07:55:33;102320.66;;;3.79;100.00
64544;BME280;50936;51.660;5.616;2023-01-27T07:58:00;102322.41;;;3.81;100.00
64544;BME280;50936;51.660;5.616;2023-01-27T08:00:27;102318.00;;;3.79;100.00
64544;BME280;50936;51.660;5.616;2023-01-27T08:02:56;102318.00;;;3.79;100.00
64544;BME280;50936;51.660;5.616;2023-01-27T08:05:25;102320.63;;;3.80;100.00
64544;BME280;50936;51.660;5.616;2023-01-27T08:07:54;102326.00;;;3.80;100.00
64544;BME280;50936;51.660;5.616;2023-01-27T08:10:24;102317.06;;;3.81;100.00
64544;BME280;50936;51.660;5.616;2023-01-27T08:12:51;102325.06;;;3.83;100.00
64544;BME280;50936;51.660;5.616;2023-01-27T08:15:18;102320.63;;;3.80;100.00
64544;BME280;50936;51.660;5.616;2023-01-27T08:17:52;102325.13;;;3.80;100.00
64544;BME280;50936;51.660;5.616;2023-01-27T08:20:24;102321.50;;;3.81;100.00
64544;BME280;50936;51.660;5.616;2023-01-27T08:22:52;102324.16;;;3.82;100.00
64544;BME280;50936;51.660;5.616;2023-01-27T08:25:20;102326.84;;;3.81;100.00
64544;BME280;50936;51.660;5.616;2023-01-27T08:27:52;102327.75;;;3.81;100.00
64544;BME280;50936;51.660;5.616;2023-01-27T08:30:22;102332.16;;;3.84;100.00
64544;BME280;50936;51.660;5.616;2023-01-27T08:32:49;102325.94;;;3.83;100.00
64544;BME280;50936;51.660;5.616;2023-01-27T08:35:16;102333.00;;;3.88;100.00
64544;BME280;50936;51.660;5.616;2023-01-27T08:37:45;102335.63;;;3.89;100.00
64544;BME280;50936;51.660;5.616;2023-01-27T08:40:14;102342.81;;;3.87;100.00
64544;BME280;50936;51.660;5.616;2023-01-27T08:42:42;102347.28;;;3.87;100.00
64544;BME280;50936;51.660;5.616;2023-01-27T08:45:09;102352.53;;;3.91;100.00
64544;BME280;50936;51.660;5.616;2023-01-27T08:47:36;102357.91;;;3.90;100.00
64544;BME280;50936;51.660;5.616;2023-01-27T08:50:03;102364.16;;;3.89;100.00
64544;BME280;50936;51.660;5.616;2023-01-27T08:52:30;102365.94;;;3.88;100.00
64544;BME280;50936;51.660;5.616;2023-01-27T08:54:57;102363.25;;;3.90;100.00
64544;BME280;50936;51.660;5.616;2023-01-27T08:57:24;102377.47;;;3.92;100.00
64544;BME280;50936;51.660;5.616;2023-01-27T08:59:51;102370.38;;;3.91;100.00
64544;BME280;50936;51.660;5.616;2023-01-27T09:02:18;102362.28;;;3.94;100.00
64544;BME280;50936;51.660;5.616;2023-01-27T09:04:47;102373.88;;;3.94;100.00
64544;BME280;50936;51.660;5.616;2023-01-27T09:07:14;102371.19;;;3.94;100.00
64544;BME280;50936;51.660;5.616;2023-01-27T09:09:45;102373.91;;;3.93;100.00
64544;BME280;50936;51.660;5.616;2023-01-27T09:12:12;102368.53;;;3.93;100.00
64544;BME280;50936;51.660;5.616;2023-01-27T09:14:40;102373.91;;;3.93;100.00
64544;BME280;50936;51.660;5.616;2023-01-27T09:17:06;102373.94;;;3.90;100.00
64544;BME280;50936;51.660;5.616;2023-01-27T09:19:34;102381.06;;;3.91;100.00
64544;BME280;50936;51.660;5.616;2023-01-27T09:22:01;102374.78;;;3.92;100.00
64544;BME280;50936;51.660;5.616;2023-01-27T09:24:28;102385.44;;;3.95;100.00
64544;BME280;50936;51.660;5.616;2023-01-27T09:26:55;102392.47;;;4.00;100.00
64544;BME280;50936;51.660;5.616;2023-01-27T09:29:23;102396.94;;;4.01;100.00
64544;BME280;50936;51.660;5.616;2023-01-27T09:31:50;102401.41;;;3.99;100.00
64544;BME280;50936;51.660;5.616;2023-01-27T09:34:18;102406.78;;;3.98;100.00
64544;BME280;50936;51.660;5.616;2023-01-27T09:36:49;102400.63;;;3.93;100.00
64544;BME280;50936;51.660;5.616;2023-01-27T09:39:19;102398.97;;;3.85;100.00
64544;BME280;50936;51.660;5.616;2023-01-27T09:56:27;102412.22;;;3.92;100.00
64544;BME280;50936;51.660;5.616;2023-01-27T09:59:25;102405.94;;;3.96;100.00
64544;BME280;50936;51.660;5.616;2023-01-27T10:11:57;102407.16;;;4.28;100.00
64544;BME280;50936;51.660;5.616;2023-01-27T10:17:40;102401.59;;;4.40;100.00
64544;BME280;50936;51.660;5.616;2023-01-27T10:20:39;102396.97;;;4.47;100.00
64544;BME280;50936;51.660;5.616;2023-01-27T10:23:12;102392.41;;;4.53;100.00
64544;BME280;50936;51.660;5.616;2023-01-27T10:25:52;102392.34;;;4.56;100.00
64544;BME280;50936;51.660;5.616;2023-01-27T10:28:43;102389.66;;;4.58;100.00
64544;BME280;50936;51.660;5.616;2023-01-27T10:31:32;102395.78;;;4.61;100.00
64544;BME280;50936;51.660;5.616;2023-01-27T10:34:23;102397.63;;;4.59;100.00
64544;BME280;50936;51.660;5.616;2023-01-27T10:40:13;102398.59;;;4.55;100.00
64544;BME280;50936;51.660;5.616;2023-01-27T10:46:07;102401.41;;;4.49;100.00
64544;BME280;50936;51.660;5.616;2023-01-27T10:48:53;102399.75;;;4.42;100.00
64544;BME280;50936;51.660;5.616;2023-01-27T10:51:35;102399.84;;;4.36;100.00
64544;BME280;50936;51.660;5.616;2023-01-27T10:57:05;102401.78;;;4.28;100.00
64544;BME280;50936;51.660;5.616;2023-01-27T10:59:49;102393.78;;;4.26;100.00
64544;BME280;50936;51.660;5.616;2023-01-27T11:03:14;102399.28;;;4.20;100.00
64544;BME280;50936;51.660;5.616;2023-01-27T11:05:55;102394.75;;;4.23;100.00
64544;BME280;50936;51.660;5.616;2023-01-27T11:08:31;102399.06;;;4.31;100.00
64544;BME280;50936;51.660;5.616;2023-01-27T11:11:05;102383.78;;;4.37;100.00
64544;BME280;50936;51.660;5.616;2023-01-27T11:14:15;102401.59;;;4.40;100.00
64544;BME280;50936;51.660;5.616;2023-01-27T11:16:58;102392.72;;;4.38;100.00
64544;BME280;50936;51.660;5.616;2023-01-27T11:19:39;102385.63;;;4.34;100.00
64544;BME280;50936;51.660;5.616;2023-01-27T11:22:13;102387.41;;;4.35;100.00
64544;BME280;50936;51.660;5.616;2023-01-27T11:27:31;102372.81;;;4.51;100.00
64544;BME280;50936;51.660;5.616;2023-01-27T11:30:17;102382.50;;;4.58;100.00
64544;BME280;50936;51.660;5.616;2023-01-27T11:33:12;102376.22;;;4.59;100.00
64544;BME280;50936;51.660;5.616;2023-01-27T11:35:48;102379.81;;;4.58;100.00
64544;BME280;50936;51.660;5.616;2023-01-27T11:38:19;102376.22;;;4.59;100.00
64544;BME280;50936;51.660;5.616;2023-01-27T11:40:49;102380.69;;;4.59;100.00
64544;BME280;50936;51.660;5.616;2023-01-27T11:43:22;102379.72;;;4.61;100.00
64544;BME280;50936;51.660;5.616;2023-01-27T11:45:59;102378.00;;;4.60;100.00
64544;BME280;50936;51.660;5.616;2023-01-27T11:48:36;102372.59;;;4.62;100.00
64544;BME280;50936;51.660;5.616;2023-01-27T11:51:13;102369.97;;;4.59;100.00
64544;BME280;50936;51.660;5.616;2023-01-27T11:56:34;102365.59;;;4.56;100.00
64544;BME280;50936;51.660;5.616;2023-01-27T11:59:34;102372.72;;;4.56;100.00
64544;BME280;50936;51.660;5.616;2023-01-27T12:05:14;102373.84;;;4.44;100.00
64544;BME280;50936;51.660;5.616;2023-01-27T12:07:56;102377.56;;;4.37;100.00
64544;BME280;50936;51.660;5.616;2023-01-27T12:10:27;102382.06;;;4.35;100.00
64544;BME280;50936;51.660;5.616;2023-01-27T12:12:56;102376.84;;;4.29;100.00
64544;BME280;50936;51.660;5.616;2023-01-27T12:15:33;102376.84;;;4.27;100.00
64544;BME280;50936;51.660;5.616;2023-01-27T12:18:13;102369.69;;;4.28;100.00
64544;BME280;50936;51.660;5.616;2023-01-27T12:20:46;102372.34;;;4.29;100.00
64544;BME280;50936;51.660;5.616;2023-01-27T12:23:54;102355.25;;;4.38;100.00
64544;BME280;50936;51.660;5.616;2023-01-27T12:26:41;102352.34;;;4.49;100.00
64544;BME280;50936;51.660;5.616;2023-01-27T12:29:17;102353.88;;;4.62;100.00
64544;BME280;50936;51.660;5.616;2023-01-27T12:31:50;102351.91;;;4.70;100.00
64544;BME280;50936;51.660;5.616;2023-01-27T12:34:29;102345.44;;;4.82;100.00
64544;BME280;50936;51.660;5.616;2023-01-27T12:37:03;102346.97;;;4.92;100.00
64544;BME280;50936;51.660;5.616;2023-01-27T12:39:43;102337.06;;;4.97;100.00
64544;BME280;50936;51.660;5.616;2023-01-27T12:45:23;102345.28;;;4.88;100.00
64544;BME280;50936;51.660;5.616;2023-01-27T12:50:44;102336.41;;;4.86;100.00
64544;BME280;50936;51.660;5.616;2023-01-27T12:53:22;102335.47;;;4.87;100.00
64544;BME280;50936;51.660;5.616;2023-01-27T12:56:11;102334.63;;;4.85;100.00
64544;BME280;50936;51.660;5.616;2023-01-27T12:58:45;102329.22;;;4.88;100.00
64544;BME280;50936;51.660;5.616;2023-01-27T13:01:31;102330.84;;;4.95;100.00
64544;BME280;50936;51.660;5.616;2023-01-27T13:06:48;102326.50;;;4.91;100.00
64544;BME280;50936;51.660;5.616;2023-01-27T13:09:31;102323.72;;;4.94;100.00
64544;BME280;50936;51.660;5.616;2023-01-27T13:12:26;102329.13;;;4.93;100.00
64544;BME280;50936;51.660;5.616;2023-01-27T13:14:56;102329.06;;;4.94;100.00
64544;BME280;50936;51.660;5.616;2023-01-27T13:20:13;102326.09;;;5.08;100.00
64544;BME280;50936;51.660;5.616;2023-01-27T13:22:47;102332.34;;;5.09;100.00
64544;BME280;50936;51.660;5.616;2023-01-27T13:25:48;102324.28;;;5.09;100.00
64544;BME280;50936;51.660;5.616;2023-01-27T13:28:33;102325.06;;;5.15;100.00
64544;BME280;50936;51.660;5.616;2023-01-27T13:37:25;102329.38;;;5.21;100.00
64544;BME280;50936;51.660;5.616;2023-01-27T13:40:22;102328.47;;;5.22;100.00
64544;BME280;50936;51.660;5.616;2023-01-27T13:43:11;102331.22;;;5.19;100.00
64544;BME280;50936;51.660;5.616;2023-01-27T13:49:04;102333.19;;;5.11;100.00
64544;BME280;50936;51.660;5.616;2023-01-27T13:51:48;102333.28;;;5.06;100.00
64544;BME280;50936;51.660;5.616;2023-01-27T13:54:15;102320.81;;;5.05;100.00
64544;BME280;50936;51.660;5.616;2023-01-27T13:56:46;102323.50;;;5.04;100.00
64544;BME280;50936;51.660;5.616;2023-01-27T14:05:59;102330.44;;;5.14;100.00
64544;BME280;50936;51.660;5.616;2023-01-27T14:30:05;102342.84;;;5.18;100.00
64544;BME280;50936;51.660;5.616;2023-01-27T14:35:00;102350.19;;;5.10;100.00
64544;BME280;50936;51.660;5.616;2023-01-27T14:40:19;102360.88;;;5.10;100.00
64544;BME280;50936;51.660;5.616;2023-01-27T14:43:12;102362.84;;;5.01;100.00
64544;BME280;50936;51.660;5.616;2023-01-27T14:45:53;102357.56;;;4.98;100.00
64544;BME280;50936;51.660;5.616;2023-01-27T14:51:38;102354.22;;;4.87;100.00
64544;BME280;50936;51.660;5.616;2023-01-27T14:57:24;102373.28;;;4.73;100.00
64544;BME280;50936;51.660;5.616;2023-01-27T15:00:03;102366.22;;;4.69;100.00
64544;BME280;50936;51.660;5.616;2023-01-27T15:05:21;102369.94;;;4.62;100.00
64544;BME280;50936;51.660;5.616;2023-01-27T15:08:27;102373.53;;;4.59;100.00
64544;BME280;50936;51.660;5.616;2023-01-27T15:22:34;102403.22;;;4.47;100.00
64544;BME280;50936;51.660;5.616;2023-01-27T15:25:22;102408.59;;;4.47;100.00
64544;BME280;50936;51.660;5.616;2023-01-27T15:27:59;102401.59;;;4.40;100.00
64544;BME280;50936;51.660;5.616;2023-01-27T15:30:31;102407.94;;;4.33;100.00
64544;BME280;50936;51.660;5.616;2023-01-27T15:33:00;102400.03;;;4.27;100.00